sensor_id;sensor_type;location;lat;lon;timestamp;temperature;humidity
23122;DHT22;11730;51.248;22.534;2022-11-27T00:02:25;0.30;99.90
23122;DHT22;11730;51.248;22.534;2022-11-27T00:04:52;0.00;99.90
23122;DHT22;11730;51.248;22.534;2022-11-27T00:12:13;0.20;99.90
23122;DHT22;11730;51.248;22.534;2022-11-27T00:14:40;0.50;99.90
23122;DHT22;11730;51.248;22.534;2022-11-27T00:22:02;0.20;99.90
23122;DHT22;11730;51.248;22.534;2022-11-27T00:24:29;0.20;99.90
23122;DHT22;11730;51.248;22.534;2022-11-27T00:29:23;0.30;99.90
23122;DHT22;11730;51.248;22.534;2022-11-27T00:31:55;0.40;99.90
23122;DHT22;11730;51.248;22.534;2022-11-27T00:34:22;0.20;99.90
23122;DHT22;11730;51.248;22.534;2022-11-27T00:44:12;0.30;99.90
23122;DHT22;11730;51.248;22.534;2022-11-27T00:49:12;0.20;99.90
23122;DHT22;11730;51.248;22.534;2022-11-27T00:51:39;0.00;99.90
23122;DHT22;11730;51.248;22.534;2022-11-27T00:56:36;0.20;99.90
23122;DHT22;11730;51.248;22.534;2022-11-27T00:59:05;0.20;99.90
23122;DHT22;11730;51.248;22.534;2022-11-27T01:01:35;0.30;99.90
23122;DHT22;11730;51.248;22.534;2022-11-27T01:04:03;0.30;99.90
23122;DHT22;11730;51.248;22.534;2022-11-27T01:06:30;0.20;99.90
23122;DHT22;11730;51.248;22.534;2022-11-27T01:08:58;0.40;99.90
23122;DHT22;11730;51.248;22.534;2022-11-27T01:11:28;0.40;99.90
23122;DHT22;11730;51.248;22.534;2022-11-27T01:13:57;0.30;99.90
23122;DHT22;11730;51.248;22.534;2022-11-27T01:16:26;0.20;99.90
23122;DHT22;11730;51.248;22.534;2022-11-27T01:18:55;0.00;99.90
23122;DHT22;11730;51.248;22.534;2022-11-27T01:21:24;0.20;99.90
23122;DHT22;11730;51.248;22.534;2022-11-27T01:23:52;0.90;99.90
23122;DHT22;11730;51.248;22.534;2022-11-27T01:26:19;0.10;99.90
23122;DHT22;11730;51.248;22.534;2022-11-27T01:31:20;0.20;99.90
23122;DHT22;11730;51.248;22.534;2022-11-27T01:33:50;0.50;99.90
23122;DHT22;11730;51.248;22.534;2022-11-27T01:38:45;0.30;99.90
23122;DHT22;11730;51.248;22.534;2022-11-27T01:41:22;0.30;99.90
23122;DHT22;11730;51.248;22.534;2022-11-27T01:43:55;0.40;99.90
23122;DHT22;11730;51.248;22.534;2022-11-27T01:46:43;0.30;99.90
23122;DHT22;11730;51.248;22.534;2022-11-27T01:49:23;0.40;99.90
23122;DHT22;11730;51.248;22.534;2022-11-27T01:52:10;1.30;99.90
23122;DHT22;11730;51.248;22.534;2022-11-27T01:54:47;0.10;99.90
23122;DHT22;11730;51.248;22.534;2022-11-27T01:57:19;0.30;99.90
23122;DHT22;11730;51.248;22.534;2022-11-27T01:59:49;0.30;99.90
23122;DHT22;11730;51.248;22.534;2022-11-27T02:04:44;0.20;99.90
23122;DHT22;11730;51.248;22.534;2022-11-27T02:07:11;0.70;99.90
23122;DHT22;11730;51.248;22.534;2022-11-27T02:24:02;-0.10;99.90
23122;DHT22;11730;51.248;22.534;2022-11-27T02:29:49;0.40;99.90
23122;DHT22;11730;51.248;22.534;2022-11-27T02:32:36;0.30;99.90
23122;DHT22;11730;51.248;22.534;2022-11-27T02:35:09;0.30;99.90
23122;DHT22;11730;51.248;22.534;2022-11-27T02:37:49;0.10;99.90
23122;DHT22;11730;51.248;22.534;2022-11-27T02:43:03;0.50;99.90
23122;DHT22;11730;51.248;22.534;2022-11-27T02:45:45;0.40;99.90
23122;DHT22;11730;51.248;22.534;2022-11-27T02:48:17;0.50;99.90
23122;DHT22;11730;51.248;22.534;2022-11-27T02:50:47;0.30;99.90
23122;DHT22;11730;51.248;22.534;2022-11-27T02:53:22;0.20;99.90
23122;DHT22;11730;51.248;22.534;2022-11-27T02:55:52;0.20;99.90
23122;DHT22;11730;51.248;22.534;2022-11-27T02:58:21;0.30;99.90
23122;DHT22;11730;51.248;22.534;2022-11-27T03:00:49;0.30;99.90
23122;DHT22;11730;51.248;22.534;2022-11-27T03:03:20;0.10;99.90
23122;DHT22;11730;51.248;22.534;2022-11-27T03:05:51;0.20;99.90
23122;DHT22;11730;51.248;22.534;2022-11-27T03:11:04;0.00;99.90
23122;DHT22;11730;51.248;22.534;2022-11-27T03:13:36;0.20;99.90
23122;DHT22;11730;51.248;22.534;2022-11-27T03:19:13;0.10;99.90
23122;DHT22;11730;51.248;22.534;2022-11-27T03:21:52;0.30;99.90
23122;DHT22;11730;51.248;22.534;2022-11-27T03:24:21;0.40;99.90
23122;DHT22;11730;51.248;22.534;2022-11-27T03:26:50;0.30;99.90
23122;DHT22;11730;51.248;22.534;2022-11-27T03:29:42;0.30;99.90
23122;DHT22;11730;51.248;22.534;2022-11-27T03:32:10;0.40;99.90
23122;DHT22;11730;51.248;22.534;2022-11-27T03:34:38;0.40;99.90
23122;DHT22;11730;51.248;22.534;2022-11-27T03:37:06;0.20;99.90
23122;DHT22;11730;51.248;22.534;2022-11-27T03:39:33;0.40;99.90
23122;DHT22;11730;51.248;22.534;2022-11-27T03:56:35;0.10;99.90
23122;DHT22;11730;51.248;22.534;2022-11-27T03:59:19;0.20;99.90
23122;DHT22;11730;51.248;22.534;2022-11-27T04:04:16;0.20;99.90
23122;DHT22;11730;51.248;22.534;2022-11-27T04:06:43;0.20;99.90
23122;DHT22;11730;51.248;22.534;2022-11-27T04:09:10;0.20;99.90
23122;DHT22;11730;51.248;22.534;2022-11-27T04:16:31;0.20;99.90
23122;DHT22;11730;51.248;22.534;2022-11-27T04:28:47;-0.10;99.90
23122;DHT22;11730;51.248;22.534;2022-11-27T04:31:14;-0.20;99.90
23122;DHT22;11730;51.248;22.534;2022-11-27T04:38:35;0.00;99.90
23122;DHT22;11730;51.248;22.534;2022-11-27T04:41:02;0.10;99.90
23122;DHT22;11730;51.248;22.534;2022-11-27T04:48:24;0.10;99.90
23122;DHT22;11730;51.248;22.534;2022-11-27T04:50:53;0.20;99.90
23122;DHT22;11730;51.248;22.534;2022-11-27T04:53:20;0.10;99.90
23122;DHT22;11730;51.248;22.534;2022-11-27T04:55:47;0.00;99.90
23122;DHT22;11730;51.248;22.534;2022-11-27T05:10:33;-0.10;99.90
23122;DHT22;11730;51.248;22.534;2022-11-27T05:12:59;0.00;99.90
23122;DHT22;11730;51.248;22.534;2022-11-27T05:20:21;0.60;99.90
23122;DHT22;11730;51.248;22.534;2022-11-27T05:22:48;0.00;99.90
23122;DHT22;11730;51.248;22.534;2022-11-27T05:27:42;-0.30;99.90
23122;DHT22;11730;51.248;22.534;2022-11-27T05:30:09;-0.10;99.90
23122;DHT22;11730;51.248;22.534;2022-11-27T05:32:36;-0.10;99.90
23122;DHT22;11730;51.248;22.534;2022-11-27T05:37:31;0.00;99.90
23122;DHT22;11730;51.248;22.534;2022-11-27T05:39:58;-0.10;99.90
23122;DHT22;11730;51.248;22.534;2022-11-27T05:42:24;-0.30;99.90
23122;DHT22;11730;51.248;22.534;2022-11-27T05:49:51;-0.20;99.90
23122;DHT22;11730;51.248;22.534;2022-11-27T05:52:18;-0.20;99.90
23122;DHT22;11730;51.248;22.534;2022-11-27T05:54:45;-0.10;99.90
23122;DHT22;11730;51.248;22.534;2022-11-27T06:02:06;-0.30;99.90
23122;DHT22;11730;51.248;22.534;2022-11-27T06:04:34;-0.20;99.90
23122;DHT22;11730;51.248;22.534;2022-11-27T06:07:01;-0.10;99.90
23122;DHT22;11730;51.248;22.534;2022-11-27T06:09:27;-0.20;99.90
23122;DHT22;11730;51.248;22.534;2022-11-27T06:11:55;-0.40;99.90
23122;DHT22;11730;51.248;22.534;2022-11-27T06:14:22;-0.10;99.90
23122;DHT22;11730;51.248;22.534;2022-11-27T06:16:49;0.20;99.90
23122;DHT22;11730;51.248;22.534;2022-11-27T06:19:16;-0.20;99.90
23122;DHT22;11730;51.248;22.534;2022-11-27T06:21:43;0.00;99.90
23122;DHT22;11730;51.248;22.534;2022-11-27T06:31:33;-0.30;99.90
23122;DHT22;11730;51.248;22.534;2022-11-27T06:34:02;0.00;99.90
23122;DHT22;11730;51.248;22.534;2022-11-27T06:36:35;0.10;99.90
23122;DHT22;11730;51.248;22.534;2022-11-27T06:39:04;-0.20;99.90
23122;DHT22;11730;51.248;22.534;2022-11-27T06:41:31;-0.10;99.90
23122;DHT22;11730;51.248;22.534;2022-11-27T06:43:59;-0.30;99.90
23122;DHT22;11730;51.248;22.534;2022-11-27T06:46:28;0.10;99.90
23122;DHT22;11730;51.248;22.534;2022-11-27T06:48:56;0.50;99.90
23122;DHT22;11730;51.248;22.534;2022-11-27T06:51:25;-0.20;99.90
23122;DHT22;11730;51.248;22.534;2022-11-27T06:53:53;-0.20;99.90
23122;DHT22;11730;51.248;22.534;2022-11-27T06:56:22;0.00;99.90
23122;DHT22;11730;51.248;22.534;2022-11-27T06:58:54;0.30;99.90
23122;DHT22;11730;51.248;22.534;2022-11-27T07:01:23;0.10;99.90
23122;DHT22;11730;51.248;22.534;2022-11-27T07:03:50;0.30;99.90
23122;DHT22;11730;51.248;22.534;2022-11-27T07:06:19;0.10;99.90
23122;DHT22;11730;51.248;22.534;2022-11-27T07:08:47;0.30;99.90
23122;DHT22;11730;51.248;22.534;2022-11-27T07:11:22;-0.30;99.90
23122;DHT22;11730;51.248;22.534;2022-11-27T07:13:50;0.20;99.90
23122;DHT22;11730;51.248;22.534;2022-11-27T07:18:50;0.20;99.90
23122;DHT22;11730;51.248;22.534;2022-11-27T07:21:18;0.00;99.90
23122;DHT22;11730;51.248;22.534;2022-11-27T07:26:18;0.30;99.90
23122;DHT22;11730;51.248;22.534;2022-11-27T07:28:45;0.20;99.90
23122;DHT22;11730;51.248;22.534;2022-11-27T07:31:15;0.20;99.90
23122;DHT22;11730;51.248;22.534;2022-11-27T07:33:43;1.10;99.90
23122;DHT22;11730;51.248;22.534;2022-11-27T07:36:17;0.20;99.90
23122;DHT22;11730;51.248;22.534;2022-11-27T07:38:45;0.20;99.90
23122;DHT22;11730;51.248;22.534;2022-11-27T07:41:12;0.30;99.90
23122;DHT22;11730;51.248;22.534;2022-11-27T07:43:41;0.10;99.90
23122;DHT22;11730;51.248;22.534;2022-11-27T07:46:14;0.20;99.90
23122;DHT22;11730;51.248;22.534;2022-11-27T07:48:41;0.20;99.90
23122;DHT22;11730;51.248;22.534;2022-11-27T07:51:10;0.00;99.90
23122;DHT22;11730;51.248;22.534;2022-11-27T07:53:38;-0.10;99.90
23122;DHT22;11730;51.248;22.534;2022-11-27T07:56:08;0.10;99.90
23122;DHT22;11730;51.248;22.534;2022-11-27T08:01:07;0.40;99.90
23122;DHT22;11730;51.248;22.534;2022-11-27T08:03:35;0.50;99.90
23122;DHT22;11730;51.248;22.534;2022-11-27T08:06:03;0.50;99.90
23122;DHT22;11730;51.248;22.534;2022-11-27T08:13:24;0.20;99.90
23122;DHT22;11730;51.248;22.534;2022-11-27T08:15:51;0.10;99.90
23122;DHT22;11730;51.248;22.534;2022-11-27T08:18:18;0.40;99.90
23122;DHT22;11730;51.248;22.534;2022-11-27T08:20:45;0.40;99.90
23122;DHT22;11730;51.248;22.534;2022-11-27T08:25:39;0.50;99.90
23122;DHT22;11730;51.248;22.534;2022-11-27T08:30:33;0.80;99.90
23122;DHT22;11730;51.248;22.534;2022-11-27T08:33:00;0.70;99.90
23122;DHT22;11730;51.248;22.534;2022-11-27T08:37:54;0.50;99.90
23122;DHT22;11730;51.248;22.534;2022-11-27T08:40:21;0.90;99.90
23122;DHT22;11730;51.248;22.534;2022-11-27T08:45:16;0.80;99.90
23122;DHT22;11730;51.248;22.534;2022-11-27T08:47:42;1.20;99.90
23122;DHT22;11730;51.248;22.534;2022-11-27T08:50:09;0.90;99.90
23122;DHT22;11730;51.248;22.534;2022-11-27T08:52:36;1.00;99.90
23122;DHT22;11730;51.248;22.534;2022-11-27T08:55:03;1.20;99.90
23122;DHT22;11730;51.248;22.534;2022-11-27T08:57:30;1.00;99.90
23122;DHT22;11730;51.248;22.534;2022-11-27T09:02:25;0.90;99.90
23122;DHT22;11730;51.248;22.534;2022-11-27T09:09:46;1.10;99.90
23122;DHT22;11730;51.248;22.534;2022-11-27T09:12:13;0.90;99.90
23122;DHT22;11730;51.248;22.534;2022-11-27T09:19:35;1.30;99.90
23122;DHT22;11730;51.248;22.534;2022-11-27T09:26:56;0.90;99.90
23122;DHT22;11730;51.248;22.534;2022-11-27T09:36:45;1.10;99.90
23122;DHT22;11730;51.248;22.534;2022-11-27T09:41:48;1.10;99.90
23122;DHT22;11730;51.248;22.534;2022-11-27T09:47:04;1.20;99.90
23122;DHT22;11730;51.248;22.534;2022-11-27T09:49:38;1.10;99.90
23122;DHT22;11730;51.248;22.534;2022-11-27T09:52:21;1.40;99.90
23122;DHT22;11730;51.248;22.534;2022-11-27T09:54:56;1.40;99.90
23122;DHT22;11730;51.248;22.534;2022-11-27T09:57:30;1.60;99.90
23122;DHT22;11730;51.248;22.534;2022-11-27T10:00:05;1.40;99.90
23122;DHT22;11730;51.248;22.534;2022-11-27T10:02:36;1.50;99.90
23122;DHT22;11730;51.248;22.534;2022-11-27T10:05:12;1.40;99.90
23122;DHT22;11730;51.248;22.534;2022-11-27T10:07:57;1.50;99.90
23122;DHT22;11730;51.248;22.534;2022-11-27T10:13:17;1.50;99.90
23122;DHT22;11730;51.248;22.534;2022-11-27T10:18:47;1.40;99.90
23122;DHT22;11730;51.248;22.534;2022-11-27T10:21:39;1.20;99.90
23122;DHT22;11730;51.248;22.534;2022-11-27T10:26:42;1.50;99.90
23122;DHT22;11730;51.248;22.534;2022-11-27T10:31:55;1.80;99.90
23122;DHT22;11730;51.248;22.534;2022-11-27T10:34:42;1.60;99.90
23122;DHT22;11730;51.248;22.534;2022-11-27T10:40:22;1.30;99.90
23122;DHT22;11730;51.248;22.534;2022-11-27T10:45:24;1.60;99.90
23122;DHT22;11730;51.248;22.534;2022-11-27T10:53:04;1.30;99.90
23122;DHT22;11730;51.248;22.534;2022-11-27T10:55:45;1.50;99.90
23122;DHT22;11730;51.248;22.534;2022-11-27T11:01:11;1.40;99.90
23122;DHT22;11730;51.248;22.534;2022-11-27T11:09:34;1.40;99.90
23122;DHT22;11730;51.248;22.534;2022-11-27T11:11:36;1.30;99.90
23122;DHT22;11730;51.248;22.534;2022-11-27T11:14:18;1.40;99.90
23122;DHT22;11730;51.248;22.534;2022-11-27T11:16:46;1.30;99.90
23122;DHT22;11730;51.248;22.534;2022-11-27T11:24:30;1.60;99.90
23122;DHT22;11730;51.248;22.534;2022-11-27T11:27:21;2.00;99.90
23122;DHT22;11730;51.248;22.534;2022-11-27T11:32:27;1.30;99.90
23122;DHT22;11730;51.248;22.534;2022-11-27T11:35:03;1.70;99.90
23122;DHT22;11730;51.248;22.534;2022-11-27T11:37:37;2.40;99.90
23122;DHT22;11730;51.248;22.534;2022-11-27T11:43:04;1.40;99.90
23122;DHT22;11730;51.248;22.534;2022-11-27T11:45:33;1.50;99.90
23122;DHT22;11730;51.248;22.534;2022-11-27T11:48:21;1.60;99.90
23122;DHT22;11730;51.248;22.534;2022-11-27T11:51:15;1.30;99.90
23122;DHT22;11730;51.248;22.534;2022-11-27T11:53:50;1.50;99.90
23122;DHT22;11730;51.248;22.534;2022-11-27T11:56:31;1.40;99.90
23122;DHT22;11730;51.248;22.534;2022-11-27T12:04:37;1.70;99.90
23122;DHT22;11730;51.248;22.534;2022-11-27T12:18:58;2.00;99.90
23122;DHT22;11730;51.248;22.534;2022-11-27T12:22:10;1.70;99.90
23122;DHT22;11730;51.248;22.534;2022-11-27T12:24:46;1.90;99.90
23122;DHT22;11730;51.248;22.534;2022-11-27T12:30:16;2.10;99.90
23122;DHT22;11730;51.248;22.534;2022-11-27T12:33:05;1.90;99.90
23122;DHT22;11730;51.248;22.534;2022-11-27T12:38:40;2.00;99.90
23122;DHT22;11730;51.248;22.534;2022-11-27T12:41:31;1.80;99.90
23122;DHT22;11730;51.248;22.534;2022-11-27T12:44:01;1.70;99.90
23122;DHT22;11730;51.248;22.534;2022-11-27T12:49:11;1.80;99.90
23122;DHT22;11730;51.248;22.534;2022-11-27T12:51:57;1.90;99.90
23122;DHT22;11730;51.248;22.534;2022-11-27T12:54:30;1.80;99.90
23122;DHT22;11730;51.248;22.534;2022-11-27T12:57:01;1.80;99.90
23122;DHT22;11730;51.248;22.534;2022-11-27T13:02:45;1.70;99.90
23122;DHT22;11730;51.248;22.534;2022-11-27T13:05:06;1.70;99.90
23122;DHT22;11730;51.248;22.534;2022-11-27T13:15:49;1.40;99.90
23122;DHT22;11730;51.248;22.534;2022-11-27T13:18:22;1.50;99.90
23122;DHT22;11730;51.248;22.534;2022-11-27T13:20:52;1.20;99.90
23122;DHT22;11730;51.248;22.534;2022-11-27T13:23:19;1.50;99.90
23122;DHT22;11730;51.248;22.534;2022-11-27T13:25:54;1.40;99.90
23122;DHT22;11730;51.248;22.534;2022-11-27T13:28:42;1.50;99.90
23122;DHT22;11730;51.248;22.534;2022-11-27T13:31:18;1.10;99.90
23122;DHT22;11730;51.248;22.534;2022-11-27T13:33:47;1.30;99.90
23122;DHT22;11730;51.248;22.534;2022-11-27T13:36:23;1.50;99.90
23122;DHT22;11730;51.248;22.534;2022-11-27T13:38:59;1.40;99.90
23122;DHT22;11730;51.248;22.534;2022-11-27T13:41:32;1.40;99.90
23122;DHT22;11730;51.248;22.534;2022-11-27T13:43:59;2.10;99.90
23122;DHT22;11730;51.248;22.534;2022-11-27T13:46:29;2.10;99.90
23122;DHT22;11730;51.248;22.534;2022-11-27T13:49:02;1.30;99.90
23122;DHT22;11730;51.248;22.534;2022-11-27T13:51:32;1.40;99.90
23122;DHT22;11730;51.248;22.534;2022-11-27T13:54:14;1.30;99.90
23122;DHT22;11730;51.248;22.534;2022-11-27T13:56:43;1.20;99.90
23122;DHT22;11730;51.248;22.534;2022-11-27T13:59:15;1.60;99.90
23122;DHT22;11730;51.248;22.534;2022-11-27T14:02:03;1.60;99.90
23122;DHT22;11730;51.248;22.534;2022-11-27T14:04:32;1.70;99.90
23122;DHT22;11730;51.248;22.534;2022-11-27T14:07:05;1.70;99.90
23122;DHT22;11730;51.248;22.534;2022-11-27T14:12:29;1.60;99.90
23122;DHT22;11730;51.248;22.534;2022-11-27T14:17:43;1.40;99.90
23122;DHT22;11730;51.248;22.534;2022-11-27T14:22:46;1.50;99.90
23122;DHT22;11730;51.248;22.534;2022-11-27T14:25:34;1.50;99.90
23122;DHT22;11730;51.248;22.534;2022-11-27T14:28:21;1.30;99.90
23122;DHT22;11730;51.248;22.534;2022-11-27T14:30:56;1.10;99.90
23122;DHT22;11730;51.248;22.534;2022-11-27T14:33:26;1.40;99.90
23122;DHT22;11730;51.248;22.534;2022-11-27T14:35:58;1.90;99.90
23122;DHT22;11730;51.248;22.534;2022-11-27T14:38:27;2.00;99.90
23122;DHT22;11730;51.248;22.534;2022-11-27T14:41:06;2.00;99.90
23122;DHT22;11730;51.248;22.534;2022-11-27T14:43:34;2.10;99.90
23122;DHT22;11730;51.248;22.534;2022-11-27T14:46:03;2.10;99.90
23122;DHT22;11730;51.248;22.534;2022-11-27T14:51:12;2.00;99.90
23122;DHT22;11730;51.248;22.534;2022-11-27T14:53:41;2.00;99.90
23122;DHT22;11730;51.248;22.534;2022-11-27T14:56:08;2.10;99.90
23122;DHT22;11730;51.248;22.534;2022-11-27T14:58:38;2.10;99.90
23122;DHT22;11730;51.248;22.534;2022-11-27T15:03:56;2.10;99.90
23122;DHT22;11730;51.248;22.534;2022-11-27T15:06:25;2.10;99.90
23122;DHT22;11730;51.248;22.534;2022-11-27T15:08:54;2.60;99.90
23122;DHT22;11730;51.248;22.534;2022-11-27T15:11:41;2.00;99.90
23122;DHT22;11730;51.248;22.534;2022-11-27T15:14:23;1.90;99.90
23122;DHT22;11730;51.248;22.534;2022-11-27T15:16:51;1.80;99.90
23122;DHT22;11730;51.248;22.534;2022-11-27T15:19:35;1.80;99.90
23122;DHT22;11730;51.248;22.534;2022-11-27T15:22:03;2.00;99.90
23122;DHT22;11730;51.248;22.534;2022-11-27T15:24:36;1.90;99.90
23122;DHT22;11730;51.248;22.534;2022-11-27T15:32:42;5.40;99.90
23122;DHT22;11730;51.248;22.534;2022-11-27T15:35:14;1.70;99.90
23122;DHT22;11730;51.248;22.534;2022-11-27T15:37:41;1.90;99.90
23122;DHT22;11730;51.248;22.534;2022-11-27T15:40:37;1.90;99.90
23122;DHT22;11730;51.248;22.534;2022-11-27T15:43:14;2.10;99.90
23122;DHT22;11730;51.248;22.534;2022-11-27T15:45:42;2.00;99.90
23122;DHT22;11730;51.248;22.534;2022-11-27T15:48:15;1.90;99.90
23122;DHT22;11730;51.248;22.534;2022-11-27T15:50:42;1.90;99.90
23122;DHT22;11730;51.248;22.534;2022-11-27T15:55:44;2.00;99.90
23122;DHT22;11730;51.248;22.534;2022-11-27T16:00:38;1.90;99.90
23122;DHT22;11730;51.248;22.534;2022-11-27T16:03:06;1.90;99.90
23122;DHT22;11730;51.248;22.534;2022-11-27T16:05:33;1.90;99.90
23122;DHT22;11730;51.248;22.534;2022-11-27T16:08:00;1.90;99.90
23122;DHT22;11730;51.248;22.534;2022-11-27T16:12:54;1.70;99.90
23122;DHT22;11730;51.248;22.534;2022-11-27T16:17:58;1.80;99.90
23122;DHT22;11730;51.248;22.534;2022-11-27T16:20:25;1.70;99.90
23122;DHT22;11730;51.248;22.534;2022-11-27T16:22:53;1.50;99.90
23122;DHT22;11730;51.248;22.534;2022-11-27T16:25:19;1.60;99.90
23122;DHT22;11730;51.248;22.534;2022-11-27T16:30:14;1.70;99.90
23122;DHT22;11730;51.248;22.534;2022-11-27T16:32:41;1.70;99.90
23122;DHT22;11730;51.248;22.534;2022-11-27T16:35:08;2.10;99.90
23122;DHT22;11730;51.248;22.534;2022-11-27T16:40:02;2.20;99.90
23122;DHT22;11730;51.248;22.534;2022-11-27T16:42:29;1.90;99.90
23122;DHT22;11730;51.248;22.534;2022-11-27T16:49:58;1.60;99.90
23122;DHT22;11730;51.248;22.534;2022-11-27T16:54:53;2.00;99.90
23122;DHT22;11730;51.248;22.534;2022-11-27T17:04:43;1.80;99.90
23122;DHT22;11730;51.248;22.534;2022-11-27T17:09:38;1.40;99.90
23122;DHT22;11730;51.248;22.534;2022-11-27T17:12:07;1.40;99.90
23122;DHT22;11730;51.248;22.534;2022-11-27T17:26:54;1.50;99.90
23122;DHT22;11730;51.248;22.534;2022-11-27T17:31:49;1.50;99.90
23122;DHT22;11730;51.248;22.534;2022-11-27T17:34:17;1.40;99.90
23122;DHT22;11730;51.248;22.534;2022-11-27T17:36:45;1.30;99.90
23122;DHT22;11730;51.248;22.534;2022-11-27T17:39:13;1.20;99.90
23122;DHT22;11730;51.248;22.534;2022-11-27T17:41:40;1.50;99.90
23122;DHT22;11730;51.248;22.534;2022-11-27T17:44:09;1.40;99.90
23122;DHT22;11730;51.248;22.534;2022-11-27T17:46:37;1.60;99.90
23122;DHT22;11730;51.248;22.534;2022-11-27T17:49:06;2.40;99.90
23122;DHT22;11730;51.248;22.534;2022-11-27T17:51:34;1.10;99.90
23122;DHT22;11730;51.248;22.534;2022-11-27T17:56:29;1.60;99.90
23122;DHT22;11730;51.248;22.534;2022-11-27T18:01:26;1.90;99.90
23122;DHT22;11730;51.248;22.534;2022-11-27T18:03:56;1.70;99.90
23122;DHT22;11730;51.248;22.534;2022-11-27T18:06:25;1.20;99.90
23122;DHT22;11730;51.248;22.534;2022-11-27T18:08:52;1.60;99.90
23122;DHT22;11730;51.248;22.534;2022-11-27T18:11:23;1.50;99.90
23122;DHT22;11730;51.248;22.534;2022-11-27T18:16:41;1.50;99.90
23122;DHT22;11730;51.248;22.534;2022-11-27T18:19:09;1.50;99.90
23122;DHT22;11730;51.248;22.534;2022-11-27T18:21:37;1.30;99.90
23122;DHT22;11730;51.248;22.534;2022-11-27T18:24:05;1.30;99.90
23122;DHT22;11730;51.248;22.534;2022-11-27T18:26:50;1.40;99.90
23122;DHT22;11730;51.248;22.534;2022-11-27T18:29:35;1.40;99.90
23122;DHT22;11730;51.248;22.534;2022-11-27T18:32:02;1.20;99.90
23122;DHT22;11730;51.248;22.534;2022-11-27T18:34:30;1.40;99.90
23122;DHT22;11730;51.248;22.534;2022-11-27T18:39:25;1.30;99.90
23122;DHT22;11730;51.248;22.534;2022-11-27T18:41:52;1.30;99.90
23122;DHT22;11730;51.248;22.534;2022-11-27T18:44:19;1.10;99.90
23122;DHT22;11730;51.248;22.534;2022-11-27T18:46:46;1.30;99.90
23122;DHT22;11730;51.248;22.534;2022-11-27T18:51:40;1.40;99.90
23122;DHT22;11730;51.248;22.534;2022-11-27T18:54:07;1.00;99.90
23122;DHT22;11730;51.248;22.534;2022-11-27T18:59:04;1.40;99.90
23122;DHT22;11730;51.248;22.534;2022-11-27T19:01:32;1.60;99.90
23122;DHT22;11730;51.248;22.534;2022-11-27T19:04:07;1.70;99.90
23122;DHT22;11730;51.248;22.534;2022-11-27T19:06:35;1.50;99.90
23122;DHT22;11730;51.248;22.534;2022-11-27T19:09:03;1.30;99.90
23122;DHT22;11730;51.248;22.534;2022-11-27T19:11:30;1.70;99.90
23122;DHT22;11730;51.248;22.534;2022-11-27T19:16:28;1.80;99.90
23122;DHT22;11730;51.248;22.534;2022-11-27T19:21:26;1.60;99.90
23122;DHT22;11730;51.248;22.534;2022-11-27T19:23:54;1.80;99.90
23122;DHT22;11730;51.248;22.534;2022-11-27T19:26:23;1.50;99.90
23122;DHT22;11730;51.248;22.534;2022-11-27T19:28:52;1.40;99.90
23122;DHT22;11730;51.248;22.534;2022-11-27T19:31:20;2.00;99.90
23122;DHT22;11730;51.248;22.534;2022-11-27T19:33:55;1.40;99.90
23122;DHT22;11730;51.248;22.534;2022-11-27T19:36:23;1.00;99.90
23122;DHT22;11730;51.248;22.534;2022-11-27T19:38:55;1.90;99.90
23122;DHT22;11730;51.248;22.534;2022-11-27T19:41:23;1.20;99.90
23122;DHT22;11730;51.248;22.534;2022-11-27T19:43:51;1.50;99.90
23122;DHT22;11730;51.248;22.534;2022-11-27T19:46:23;1.50;99.90
23122;DHT22;11730;51.248;22.534;2022-11-27T19:48:53;1.60;99.90
23122;DHT22;11730;51.248;22.534;2022-11-27T19:51:21;1.70;99.90
23122;DHT22;11730;51.248;22.534;2022-11-27T20:01:18;1.50;99.90
23122;DHT22;11730;51.248;22.534;2022-11-27T20:03:45;1.60;99.90
23122;DHT22;11730;51.248;22.534;2022-11-27T20:06:15;1.50;99.90
23122;DHT22;11730;51.248;22.534;2022-11-27T20:08:43;2.10;99.90
23122;DHT22;11730;51.248;22.534;2022-11-27T20:11:13;1.30;99.90
23122;DHT22;11730;51.248;22.534;2022-11-27T20:16:13;1.80;99.90
23122;DHT22;11730;51.248;22.534;2022-11-27T20:18:40;1.60;99.90
23122;DHT22;11730;51.248;22.534;2022-11-27T20:21:13;1.60;99.90
23122;DHT22;11730;51.248;22.534;2022-11-27T20:23:40;1.90;99.90
23122;DHT22;11730;51.248;22.534;2022-11-27T20:26:12;1.90;99.90
23122;DHT22;11730;51.248;22.534;2022-11-27T20:28:39;1.80;99.90
23122;DHT22;11730;51.248;22.534;2022-11-27T20:31:12;1.80;99.90
23122;DHT22;11730;51.248;22.534;2022-11-27T20:36:15;2.00;99.90
23122;DHT22;11730;51.248;22.534;2022-11-27T20:38:42;2.40;99.90
23122;DHT22;11730;51.248;22.534;2022-11-27T20:41:12;3.00;99.90
23122;DHT22;11730;51.248;22.534;2022-11-27T20:43:40;2.10;99.90
23122;DHT22;11730;51.248;22.534;2022-11-27T20:46:07;2.20;99.90
23122;DHT22;11730;51.248;22.534;2022-11-27T20:51:09;2.20;99.90
23122;DHT22;11730;51.248;22.534;2022-11-27T20:53:36;2.20;99.90
23122;DHT22;11730;51.248;22.534;2022-11-27T20:56:05;2.20;99.90
23122;DHT22;11730;51.248;22.534;2022-11-27T20:58:34;2.20;99.90
23122;DHT22;11730;51.248;22.534;2022-11-27T21:01:21;1.90;99.90
23122;DHT22;11730;51.248;22.534;2022-11-27T21:03:50;1.50;99.90
23122;DHT22;11730;51.248;22.534;2022-11-27T21:06:20;1.70;99.90
23122;DHT22;11730;51.248;22.534;2022-11-27T21:08:48;1.60;99.90
23122;DHT22;11730;51.248;22.534;2022-11-27T21:11:25;1.60;99.90
23122;DHT22;11730;51.248;22.534;2022-11-27T21:13:57;1.60;99.90
23122;DHT22;11730;51.248;22.534;2022-11-27T21:16:26;1.60;99.90
23122;DHT22;11730;51.248;22.534;2022-11-27T21:18:55;1.70;99.90
23122;DHT22;11730;51.248;22.534;2022-11-27T21:23:49;2.00;99.90
23122;DHT22;11730;51.248;22.534;2022-11-27T21:28:44;2.10;99.90
23122;DHT22;11730;51.248;22.534;2022-11-27T21:31:14;2.10;99.90
23122;DHT22;11730;51.248;22.534;2022-11-27T21:33:51;2.10;99.90
23122;DHT22;11730;51.248;22.534;2022-11-27T21:36:21;2.10;99.90
23122;DHT22;11730;51.248;22.534;2022-11-27T21:38:48;2.20;99.90
23122;DHT22;11730;51.248;22.534;2022-11-27T21:41:15;1.90;99.90
23122;DHT22;11730;51.248;22.534;2022-11-27T21:43:46;1.80;99.90
23122;DHT22;11730;51.248;22.534;2022-11-27T21:46:18;2.00;99.90
23122;DHT22;11730;51.248;22.534;2022-11-27T21:48:47;2.00;99.90
23122;DHT22;11730;51.248;22.534;2022-11-27T21:51:15;2.20;99.90
23122;DHT22;11730;51.248;22.534;2022-11-27T21:53:43;2.00;99.90
23122;DHT22;11730;51.248;22.534;2022-11-27T21:56:13;1.70;99.90
23122;DHT22;11730;51.248;22.534;2022-11-27T21:58:41;2.00;99.90
23122;DHT22;11730;51.248;22.534;2022-11-27T22:01:13;1.80;99.90
23122;DHT22;11730;51.248;22.534;2022-11-27T22:06:11;1.70;99.90
23122;DHT22;11730;51.248;22.534;2022-11-27T22:08:39;2.30;99.90
23122;DHT22;11730;51.248;22.534;2022-11-27T22:11:08;1.50;99.90